Data for 06/13/2018

Time Sea-Level Adjusted Pressure Absolute Pressure Temperature Relative Humidity Dew Point   
(mb) (inHg) (mb) (inHg) (C) (F) (%) (C) (F)
00:05 1018 30.06 847 25.01 11.8 53.2 34 -3.7 25.3
00:10 1018 30.06 847 25.01 11.6 52.9 34 -3.6 25.4
00:15 1018 30.06 847 25.01 11.5 52.7 34 -3.6 25.5
00:20 1018 30.06 847 25.01 11.4 52.5 34 -4 24.8
00:25 1018 30.06 847 25.01 11.5 52.7 33 -4.1 24.6
00:30 1018 30.06 847 25.01 11.7 53 33 -4.2 24.4
00:35 1018 30.06 847 25.01 11.7 53.1 32 -4.3 24.2
00:40 1018 30.06 847 25.01 11.9 53.4 33 -4 24.9
00:45 1018 30.06 847 25.01 11.9 53.5 32 -4.1 24.6
00:50 1018 30.06 847 25.01 11.9 53.3 33 -4 24.8
00:55 1018 30.06 847 25.01 11.9 53.4 32 -4.1 24.6
01:00 1018 30.06 847 25.01 11.9 53.5 32 -4.1 24.6
01:05 1018 30.06 847 25.01 11.8 53.2 35 -3.2 26.2
01:10 1018 30.06 847 25.01 11.4 52.5 34 -3.7 25.3
01:15 1018 30.06 847 25.01 11.5 52.7 33 -4 24.8
01:20 1018 30.06 847 25.01 11.6 52.8 33 -4 24.8
01:25 1018 30.06 847 25.01 11.8 53.2 33 -4.1 24.6
01:30 1018 30.06 847 25.01 11.8 53.3 33 -3.9 24.9
01:35 1017 30.03 847 25.01 11.8 53.2 33 -3.8 25.1
01:40 1017 30.03 847 25.01 11.8 53.3 33 -3.7 25.3
01:45 1018 30.06 847 25.01 11.8 53.3 34 -3.6 25.4
01:50 1017 30.03 847 25.01 11.9 53.3 34 -3.6 25.6
01:55 1017 30.03 847 25.01 11.9 53.5 34 -3.3 26.1
02:00 1017 30.03 847 25.01 12 53.6 34 -3.5 25.8
02:05 1017 30.03 847 25.01 12 53.6 34 -3.4 25.8
02:10 1017 30.03 847 25.01 12 53.5 34 -3.5 25.8
02:15 1017 30.03 847 25.01 12.1 53.8 33 -3.5 25.7
02:20 1017 30.03 847 25.01 12.2 54 33 -3.4 25.8
02:25 1017 30.03 847 25.01 12.3 54.1 33 -3.4 25.8
02:30 1017 30.03 847 25.01 12.2 53.9 35 -3 26.7
02:35 1017 30.03 847 25.01 11.9 53.5 35 -3 26.6
02:40 1017 30.03 846 24.98 11.6 53 37 -2.5 27.5
02:45 1017 30.03 846 24.98 11.4 52.4 38 -2.5 27.4
02:50 1017 30.03 846 24.98 11.2 52.2 38 -2.5 27.6
02:55 1017 30.03 846 24.98 11.1 52 39 -2.1 28.1
03:00 1017 30.03 846 24.98 10.9 51.6 41 -1.7 29
03:05 1017 30.03 846 24.98 10.8 51.4 40 -2.1 28.1
03:10 1017 30.03 846 24.98 10.9 51.7 37 -3.2 26.2
03:15 1017 30.03 846 24.98 11.5 52.7 38 -2.2 28
03:20 1017 30.03 846 24.98 11.5 52.6 37 -2.8 27
03:25 1017 30.03 846 24.98 11.7 53 35 -3.4 25.9
03:30 1017 30.03 846 24.98 11.7 53 35 -3.3 26.1
03:35 1017 30.03 846 24.98 11.6 52.9 38 -2.3 27.9
03:40 1017 30.03 846 24.98 10.8 51.4 41 -2 28.4
03:45 1017 30.03 846 24.98 10.5 50.9 39 -2.8 26.9
03:50 1017 30.03 846 24.98 10.6 51 41 -1.9 28.5
03:55 1017 30.03 846 24.98 10.3 50.5 43 -1.8 28.7
04:00 1017 30.03 846 24.98 10.1 50.2 43 -1.8 28.8
04:05 1017 30.03 846 24.98 9.9 49.9 44 -1.6 29
04:10 1017 30.03 846 24.98 9.7 49.5 45 -1.7 28.9
04:15 1017 30.03 846 24.98 9.5 49.2 45 -1.8 28.8
04:20 1017 30.03 846 24.98 9.5 49.1 45 -1.9 28.5
04:25 1017 30.03 846 24.98 9.4 48.9 42 -2.8 27
04:30 1017 30.03 846 24.98 9.7 49.5 42 -2.5 27.6
04:35 1017 30.03 846 24.98 9.9 49.7 44 -1.8 28.8
04:40 1017 30.03 847 25.01 9.5 49.1 47 -1.4 29.6
04:45 1017 30.03 847 25.01 9.3 48.8 46 -1.6 29.1
04:50 1017 30.03 847 25.01 9.3 48.7 46 -1.7 29
04:55 1017 30.03 847 25.01 9.3 48.7 45 -2.1 28.2
05:00 1017 30.03 847 25.01 9.2 48.6 49 -0.8 30.5
05:05 1017 30.03 847 25.01 8.7 47.6 50 -1 30.2
05:10 1017 30.03 847 25.01 8.8 47.9 48 -1.7 29
05:15 1017 30.03 847 25.01 8.8 47.9 47 -1.8 28.7
05:20 1017 30.03 847 25.01 8.8 47.8 49 -1.4 29.4
05:25 1017 30.03 847 25.01 8.6 47.5 48 -1.8 28.8
05:30 1017 30.03 847 25.01 8.6 47.4 49 -1.4 29.5
05:35 1017 30.03 847 25.01 8.6 47.4 48 -1.7 28.9
05:40 1017 30.03 847 25.01 8.8 47.8 47 -1.9 28.5
05:45 1017 30.03 847 25.01 8.8 47.9 48 -1.7 29
05:50 1017 30.03 846 24.98 8.6 47.5 48 -1.8 28.8
05:55 1017 30.03 846 24.98 8.7 47.6 50 -1.1 30
06:00 1017 30.03 846 24.98 8.3 46.9 53 -0.6 30.9
06:05 1017 30.03 846 24.98 7.9 46.2 55 -0.5 31.1
06:10 1017 30.03 846 24.98 7.8 46 53 -1.2 29.9
06:15 1017 30.03 846 24.98 8.3 46.9 52 -1 30.3
06:20 1017 30.03 846 24.98 8.6 47.5 47 -1.9 28.6
06:25 1017 30.03 846 24.98 9.1 48.4 47 -1.6 29.1
06:30 1017 30.03 846 24.98 9.1 48.5 47 -1.4 29.5
06:35 1017 30.03 846 24.98 9.2 48.5 47 -1.6 29.2
06:40 1017 30.03 846 24.98 9.3 48.8 47 -1.3 29.7
06:45 1017 30.03 846 24.98 9.2 48.5 50 -0.7 30.8
06:50 1017 30.03 846 24.98 9 48.3 54 0.2 32.3
06:55 1017 30.03 846 24.98 9 48.1 53 -0.1 31.8
07:00 1017 30.03 846 24.98 9 48.3 53 -0.1 31.8
07:05 1017 30.03 846 24.98 9.2 48.6 51 -0.2 31.6
07:10 1017 30.03 846 24.98 9.5 49.2 51 -0.1 31.9
07:15 1017 30.03 846 24.98 9.7 49.4 50 -0.2 31.6
07:20 1017 30.03 846 24.98 9.9 49.8 48 -0.5 31.1
07:25 1017 30.03 846 24.98 10.2 50.4 47 -0.6 30.9
07:30 1017 30.03 846 24.98 10.6 51 45 -0.7 30.7
07:35 1017 30.03 846 24.98 11 51.9 44 -0.7 30.7
07:40 1017 30.03 846 24.98 11.5 52.7 41 -1.1 30
07:45 1017 30.03 846 24.98 11.8 53.3 42 -0.7 30.8
07:50 1017 30.03 846 24.98 12.2 54 40 -1 30.3
07:55 1017 30.03 846 24.98 12.6 54.6 39 -0.9 30.5
08:00 1017 30.03 846 24.98 12.9 55.1 40 -0.4 31.3
08:05 1017 30.03 846 24.98 13.2 55.8 38 -0.8 30.6
08:10 1017 30.03 846 24.98 13.3 55.9 37 -1.1 30.1
08:15 1017 30.03 846 24.98 13.7 56.7 38 -0.2 31.7
08:20 1017 30.03 846 24.98 13.9 57 37 -0.5 31.2
08:25 1017 30.03 846 24.98 14 57.2 37 -0.4 31.3
08:30 1017 30.03 846 24.98 14.7 58.5 34 -1 30.2
08:35 1017 30.03 846 24.98 14.7 58.5 35 -0.4 31.3
08:40 1017 30.03 846 24.98 14.8 58.7 35 -0.6 31
08:45 1017 30.03 846 24.98 15.1 59.2 35 -0.2 31.6
08:50 1017 30.03 846 24.98 15.4 59.7 33 -0.8 30.5
08:55 1017 30.03 846 24.98 15.8 60.4 31 -1.1 30
09:00 1017 30.03 846 24.98 16.2 61.2 30 -1.3 29.7
09:05 1017 30.03 846 24.98 17 62.7 30 -0.6 31
09:10 1017 30.03 846 24.98 17.8 64 29 -0.5 31.1
09:15 1017 30.03 846 24.98 17.9 64.2 29 -0.2 31.6
09:20 1017 30.03 846 24.98 18.5 65.3 28 -0.1 31.8
09:25 1017 30.03 846 24.98 18.9 66 27 -0.3 31.4
09:30 1017 30.03 846 24.98 19.4 66.9 27 -0.1 31.8
09:35 1017 30.03 846 24.98 19.4 66.9 27 -0.1 31.7
09:40 1017 30.03 846 24.98 19.4 66.8 23 -2 28.5
09:45 1017 30.03 846 24.98 19.6 67.2 22 -2.5 27.4
09:50 1017 30.03 846 24.98 20.1 68.1 23 -1.8 28.7
09:55 1017 30.03 846 24.98 20.4 68.8 21 -2.4 27.8
10:00 1016 30 846 24.98 20.8 69.4 20 -2.7 27.2
10:05 1016 30 846 24.98 21.1 69.9 21 -2.2 28
10:10 1016 30 845 24.95 20.7 69.2 20 -2.8 27
10:15 1016 30 845 24.95 21.5 70.8 19 -3.2 26.3
10:20 1016 30 845 24.95 22 71.5 18 -3 26.6
10:25 1016 30 845 24.95 22.1 71.8 18 -3.1 26.4
10:30 1016 30 845 24.95 22.2 71.9 19 -2.5 27.6
10:35 1016 30 845 24.95 22.5 72.4 18 -2.7 27.1
10:40 1016 30 845 24.95 22.7 72.9 18 -2.9 26.9
10:45 1016 30 845 24.95 23.1 73.5 17 -3.1 26.4
10:50 1016 30 845 24.95 23.2 73.7 18 -2.3 27.8
10:55 1016 30 845 24.95 23.9 75.1 17 -2.4 27.6
11:00 1015 29.97 845 24.95 24.1 75.3 17 -2.5 27.4
11:05 1015 29.97 845 24.95 24.5 76 18 -1.3 29.7
11:10 1015 29.97 844 24.92 24.4 76 17 -1.6 29.1
11:15 1015 29.97 844 24.92 25.5 78 16 -1.5 29.3
11:20 1015 29.97 844 24.92 26 78.8 17 -0.5 31.2
11:25 1015 29.97 844 24.92 24.7 76.5 17 -2.1 28.3
11:30 1015 29.97 844 24.92 25.6 78.2 15 -3 26.6
11:35 1015 29.97 844 24.92 26.2 79.2 15 -1.8 28.8
11:40 1015 29.97 844 24.92 26.1 78.9 16 -1.6 29.2
11:45 1015 29.97 844 24.92 25.8 78.5 15 -2.7 27.2
11:50 1015 29.97 844 24.92 25.5 77.9 18 -0.3 31.5
11:55 1015 29.97 844 24.92 26.4 79.5 17 -0.2 31.6
12:00 1014 29.94 844 24.92 26.1 79 18 0.1 32.2
12:05 1014 29.94 844 24.92 24.6 76.3 18 -1.2 29.9
12:10 1014 29.94 843 24.89 25 77 18 -0.9 30.4
12:15 1014 29.94 843 24.89 26 78.8 17 -0.4 31.2
12:20 1014 29.94 843 24.89 25.6 78.1 18 -0.1 31.9
12:25 1014 29.94 843 24.89 26.5 79.6 16 -1.4 29.4
12:30 1014 29.94 843 24.89 27.3 81.1 14 -2 28.5
12:35 1014 29.94 843 24.89 26.8 80.3 13 -3.1 26.4
12:40 1014 29.94 843 24.89 27.2 81 13 -2.8 26.9
12:45 1014 29.94 843 24.89 27.2 81 14 -2 28.4
12:50 1014 29.94 843 24.89 25.8 78.4 17 -0.8 30.6
12:55 1013 29.91 843 24.89 26 78.9 15 -2.4 27.7
13:00 1013 29.91 843 24.89 25.9 78.6 15 -2.5 27.5
13:05 1013 29.91 842 24.86 25.7 78.3 15 -2.7 27.2
13:10 1013 29.91 842 24.86 25.8 78.5 15 -2.4 27.6
13:15 1013 29.91 842 24.86 25.9 78.6 15 -2.5 27.5
13:20 1013 29.91 842 24.86 25.9 78.6 17 -0.7 30.8
13:25 1013 29.91 842 24.86 26.7 80 15 -2.2 28.1
13:30 1013 29.91 842 24.86 27.1 80.8 15 -1.3 29.6
13:35 1013 29.91 842 24.86 27.6 81.7 14 -1.7 29
13:40 1013 29.91 842 24.86 27.1 80.8 15 -1.3 29.7
13:45 1013 29.91 842 24.86 27.9 82.1 14 -1.9 28.6
13:50 1013 29.91 842 24.86 28.3 82.9 15 -0.7 30.8
13:55 1012 29.88 842 24.86 28.2 82.8 14 -1.8 28.8
14:00 1012 29.88 842 24.86 27.4 81.4 15 -1.6 29.2
14:05 1012 29.88 842 24.86 28 82.3 14 -1.5 29.4
14:10 1012 29.88 841 24.83 27.2 81 15 -1.7 28.9
14:15 1012 29.88 841 24.83 27 80.6 15 -1.7 28.9
14:20 1012 29.88 841 24.83 27.9 82.1 14 -1.8 28.7
14:25 1012 29.88 841 24.83 27.5 81.6 15 -1.3 29.7
14:30 1012 29.88 841 24.83 27.5 81.4 14 -2 28.4
14:35 1012 29.88 841 24.83 28.4 83.2 14 -0.9 30.3
14:40 1012 29.88 841 24.83 29.3 84.7 14 -0.3 31.4
14:45 1012 29.88 841 24.83 29.2 84.5 15 -0 31.9
14:50 1012 29.88 841 24.83 28.6 83.5 15 -0.1 31.8
14:55 1012 29.88 841 24.83 27.9 82.3 15 -0.8 30.6
15:00 1012 29.88 841 24.83 28.3 83 15 -0.6 30.9
15:05 1012 29.88 841 24.83 27.9 82.1 17 0.9 33.6
15:10 1012 29.88 841 24.83 27.2 81 18 0.8 33.4
15:15 1012 29.88 841 24.83 27 80.6 17 0.2 32.4
15:20 1012 29.88 841 24.83 26.9 80.4 17 0.1 32.2
15:25 1012 29.88 841 24.83 26.5 79.8 18 0.9 33.5
15:30 1012 29.88 841 24.83 26.3 79.3 17 -0.4 31.2
15:35 1012 29.88 841 24.83 26.3 79.3 18 0.3 32.5
15:40 1012 29.88 841 24.83 26.4 79.5 18 0.4 32.6
15:45 1011 29.85 841 24.83 26.9 80.5 18 0.6 33
15:50 1011 29.85 841 24.83 27.2 80.9 18 0.8 33.4
15:55 1011 29.85 841 24.83 28.4 83 16 0 32.1
16:00 1011 29.85 841 24.83 28.8 83.9 15 -0.2 31.6
16:05 1011 29.85 841 24.83 29.2 84.6 15 -0 31.9
16:10 1011 29.85 840 24.81 29.2 84.6 13 -1.9 28.6
16:15 1011 29.85 840 24.81 28.9 84 14 -0.6 31
16:20 1011 29.85 840 24.81 29.2 84.6 14 -0.7 30.8
16:25 1011 29.85 840 24.81 29.1 84.4 13 -2.2 28
16:30 1011 29.85 840 24.81 28.9 84 13 -1.7 28.9
16:35 1011 29.85 840 24.81 29.1 84.4 14 -1 30.1
16:40 1011 29.85 840 24.81 29.4 84.9 13 -1.2 29.9
16:45 1011 29.85 840 24.81 28.8 83.9 12 -3.1 26.4
16:50 1011 29.85 840 24.81 28.3 82.9 13 -2.4 27.6
16:55 1011 29.85 840 24.81 28.7 83.7 13 -2 28.4
17:00 1011 29.85 840 24.81 28.2 82.8 13 -2.4 27.6
17:05 1011 29.85 840 24.81 28.4 83.2 14 -1.3 29.7
17:10 1011 29.85 840 24.81 28.4 83.1 14 -1.1 30
17:15 1011 29.85 840 24.81 28.3 82.9 15 -1 30.3
17:20 1011 29.85 840 24.81 27.6 81.7 15 -0.9 30.4
17:25 1011 29.85 840 24.81 27.5 81.5 15 -1.5 29.3
17:30 1011 29.85 840 24.81 28.1 82.5 13 -2.5 27.4
17:35 1011 29.85 840 24.81 28.4 83.2 13 -2 28.5
17:40 1011 29.85 840 24.81 28.9 84 13 -1.9 28.6
17:45 1011 29.85 840 24.81 28.9 83.9 13 -1.8 28.8
17:50 1011 29.85 840 24.81 28.4 83.2 14 -1.2 29.9
17:55 1011 29.85 840 24.81 28.6 83.4 14 -1.6 29.1
18:00 1011 29.85 840 24.81 28.2 82.8 15 -0.9 30.4
18:05 1011 29.85 840 24.81 27.7 81.9 15 -0.7 30.7
18:10 1011 29.85 840 24.81 27.8 82.1 15 -1.2 29.9
18:15 1010 29.83 840 24.81 28.4 83.1 14 -1.5 29.3
18:20 1010 29.83 840 24.81 28.4 83 14 -1.8 28.8
18:25 1010 29.83 840 24.81 28.5 83.2 14 -1.7 28.9
18:30 1010 29.83 839 24.78 28.4 83.1 13 -1.9 28.6
18:35 1010 29.83 839 24.78 28.6 83.5 14 -1.1 30.1
18:40 1010 29.83 839 24.78 28.5 83.3 14 -1.5 29.3
18:45 1010 29.83 839 24.78 28.4 83.1 14 -1.4 29.6
18:50 1010 29.83 839 24.78 28.2 82.7 15 -0.8 30.5
18:55 1010 29.83 839 24.78 28.3 83 15 -0.3 31.4
19:00 1010 29.83 839 24.78 28.3 82.9 14 -1.2 29.9
19:05 1010 29.83 839 24.78 28 82.4 14 -2 28.3
19:10 1010 29.83 839 24.78 27.7 81.8 14 -1.7 29
19:15 1010 29.83 839 24.78 27.5 81.4 15 -1.6 29.1
19:20 1010 29.83 839 24.78 27.1 80.8 15 -1.4 29.5
19:25 1010 29.83 839 24.78 27 80.6 15 -1.2 29.9
19:30 1010 29.83 839 24.78 26.9 80.4 15 -1.2 29.8
19:35 1010 29.83 839 24.78 26.7 80.1 16 -0.6 31
19:40 1010 29.83 839 24.78 26.5 79.7 16 -1.1 30
19:45 1010 29.83 839 24.78 26.3 79.4 18 0.5 32.9
19:50 1010 29.83 839 24.78 26.2 79.1 17 -0.3 31.5
19:55 1009 29.8 839 24.78 26 78.7 17 -0.9 30.4
20:00 1009 29.8 839 24.78 25.8 78.5 19 1.1 33.9
20:05 1009 29.8 839 24.78 25.6 78.1 17 -0.8 30.6
20:10 1009 29.8 839 24.78 25.8 78.4 15 -2.1 28.1
20:15 1009 29.8 839 24.78 26 78.8 19 0.6 33.1
20:20 1009 29.8 838 24.75 25.8 78.4 17 -0.5 31.1
20:25 1009 29.8 838 24.75 25.6 78.1 18 -0.4 31.3
20:30 1009 29.8 838 24.75 25.4 77.8 19 0.4 32.8
20:35 1009 29.8 838 24.75 25.2 77.3 19 0.5 32.9
20:40 1009 29.8 838 24.75 25 77 22 2 35.6
20:45 1009 29.8 838 24.75 24.9 76.8 21 1.3 34.3
20:50 1009 29.8 838 24.75 24.7 76.4 20 0.1 32.2
20:55 1009 29.8 838 24.75 24.5 76.1 19 -0.3 31.4
21:00 1009 29.8 838 24.75 24.5 76 19 -0.1 31.9
21:05 1009 29.8 838 24.75 24.3 75.7 20 0 32
21:10 1009 29.8 838 24.75 24.1 75.4 19 -0.6 30.9
21:15 1009 29.8 838 24.75 24.2 75.5 19 -0.7 30.8
21:20 1009 29.8 838 24.75 24.2 75.5 19 -0.8 30.6
21:25 1009 29.8 838 24.75 24.4 75.8 17 -2.4 27.7
21:30 1009 29.8 838 24.75 24.4 75.9 18 -1 30.1
21:35 1009 29.8 839 24.78 24 75.2 18 -1.5 29.3
21:40 1009 29.8 839 24.78 24 75.3 17 -2.1 28.2
21:45 1009 29.8 839 24.78 24.2 75.6 17 -1.9 28.6
21:50 1009 29.8 839 24.78 24.2 75.6 18 -1.5 29.3
21:55 1009 29.8 839 24.78 23.9 74.9 18 -1.6 29.1
22:00 1010 29.83 839 24.78 23.8 74.8 21 0.3 32.5
22:05 1010 29.83 839 24.78 23.1 73.7 22 0.7 33.3
22:10 1010 29.83 839 24.78 23.1 73.6 20 -0.8 30.6
22:15 1010 29.83 839 24.78 23.2 73.7 20 -0.6 30.9
22:20 1010 29.83 839 24.78 22.8 73 22 0.1 32.2
22:25 1010 29.83 839 24.78 22.2 72 25 1.2 34.1
22:30 1010 29.83 839 24.78 21.7 71 27 2.1 35.8
22:35 1010 29.83 839 24.78 21.2 70.1 28 2.3 36.1
22:40 1010 29.83 840 24.81 20.8 69.4 29 2.4 36.3
22:45 1010 29.83 840 24.81 20.6 69.1 30 2.5 36.6
22:50 1010 29.83 840 24.81 20.4 68.7 31 2.8 37.1
22:55 1011 29.85 840 24.81 20 67.9 32 3.1 37.5
23:00 1011 29.85 840 24.81 19.5 67.2 32 2.8 37
23:05 1011 29.85 840 24.81 19.5 67 33 2.7 36.9
23:10 1011 29.85 840 24.81 19.1 66.3 33 2.6 36.7
23:15 1011 29.85 840 24.81 18.6 65.5 35 2.9 37.3
23:20 1011 29.85 840 24.81 18.2 64.8 35 2.8 37
23:25 1011 29.85 840 24.81 18 64.4 35 2.5 36.6
23:30 1011 29.85 840 24.81 18 64.4 36 2.7 36.8
23:35 1011 29.85 840 24.81 17.9 64.2 35 2.4 36.3
23:40 1011 29.85 840 24.81 17.9 64.3 35 2.3 36.1
23:45 1011 29.85 840 24.81 17.9 64.3 34 2 35.6
23:50 1011 29.85 840 24.81 17.9 64.1 33 1.7 35
23:55 1011 29.85 840 24.81 18 64.3 32 1.2 34.2
24:00 1011 29.85 840 24.81 18.1 64.5 32 1.1 34